Time;durP1;ratioP1;P1;durP2;ratioP2;P2;SDS_P1;SDS_P2;PMS_P1;PMS_P2;Temp;Humidity;BMP_temperature;BMP_pressure;BME280_temperature;BME280_humidity;BME280_pressure;Samples;Min_cycle;Max_cycle;Signal;HPM_P1;HPM_P2
2022/01/22 00:01:47;;;;;;;1.70;1.60;;;;;;;;;;5024878;28;20204;-63
2022/01/22 00:04:14;;;;;;;1.97;1.63;;;;;;;;;;5025255;28;20219;-62
2022/01/22 00:06:43;;;;;;;1.70;1.60;;;;;;;;;;5024800;28;20204;-63
2022/01/22 00:09:11;;;;;;;4.37;1.97;;;;;;;;;;5024586;28;20212;-62
2022/01/22 00:11:40;;;;;;;2.33;1.60;;;;;;;;;;5026661;28;20235;-62
2022/01/22 00:14:27;;;;;;;1.73;1.13;;;;;;;;;;5029349;28;20270;-62
2022/01/22 00:16:54;;;;;;;1.80;1.17;;;;;;;;;;5028979;28;20232;-62
2022/01/22 00:19:22;;;;;;;1.63;1.53;;;;;;;;;;5029557;28;20235;-62
2022/01/22 00:21:50;;;;;;;1.97;1.20;;;;;;;;;;5029416;28;20596;-62
2022/01/22 00:24:17;;;;;;;1.07;1.07;;;;;;;;;;5029263;28;20239;-61
2022/01/22 00:26:45;;;;;;;1.90;0.93;;;;;;;;;;5029244;28;20251;-62
2022/01/22 00:29:13;;;;;;;0.93;0.93;;;;;;;;;;5029026;28;20296;-62
2022/01/22 00:31:41;;;;;;;2.77;1.10;;;;;;;;;;5029143;28;20215;-62
2022/01/22 00:34:08;;;;;;;0.83;0.83;;;;;;;;;;5029047;28;20593;-62
2022/01/22 00:36:36;;;;;;;1.73;1.13;;;;;;;;;;5028603;28;20243;-62
2022/01/22 00:39:04;;;;;;;5.03;1.47;;;;;;;;;;5028853;28;20215;-63
2022/01/22 00:41:31;;;;;;;3.23;1.23;;;;;;;;;;5028884;28;20211;-62
2022/01/22 00:43:58;;;;;;;1.47;1.00;;;;;;;;;;5028371;28;20671;-63
2022/01/22 00:46:27;;;;;;;1.80;0.60;;;;;;;;;;5028176;28;20234;-62
2022/01/22 00:48:54;;;;;;;0.90;0.90;;;;;;;;;;5028574;28;20698;-62
2022/01/22 00:51:21;;;;;;;1.83;0.83;;;;;;;;;;5028088;28;20243;-61
2022/01/22 00:53:48;;;;;;;0.50;0.50;;;;;;;;;;5028359;28;20287;-62
2022/01/22 00:56:17;;;;;;;0.60;0.60;;;;;;;;;;5028076;28;20232;-61
2022/01/22 00:58:44;;;;;;;0.83;0.70;;;;;;;;;;5028435;28;20211;-61
2022/01/22 01:01:11;;;;;;;0.83;0.50;;;;;;;;;;5028138;28;20209;-61
2022/01/22 01:03:38;;;;;;;0.73;0.60;;;;;;;;;;5027900;28;20446;-61
2022/01/22 01:06:06;;;;;;;0.43;0.43;;;;;;;;;;5028255;28;20497;-61
2022/01/22 01:08:34;;;;;;;0.80;0.80;;;;;;;;;;5028092;28;20234;-61
2022/01/22 01:11:02;;;;;;;0.53;0.53;;;;;;;;;;5028606;28;20212;-61
2022/01/22 01:13:36;;;;;;;0.73;0.73;;;;;;;;;;5028683;28;20219;-61
2022/01/22 01:16:15;;;;;;;1.40;0.70;;;;;;;;;;5027932;28;20302;-61
2022/01/22 01:32:52;;;;;;;4.50;1.33;;;;;;;;;;5008849;28;20220;-62
2022/01/22 01:35:19;;;;;;;3.93;0.80;;;;;;;;;;5027456;28;20728;-62
2022/01/22 01:37:46;;;;;;;0.70;0.70;;;;;;;;;;5027910;28;20323;-62
2022/01/22 01:40:17;;;;;;;0.60;0.60;;;;;;;;;;5027669;28;20310;-62
2022/01/22 01:42:50;;;;;;;0.50;0.50;;;;;;;;;;5027538;28;20310;-62
2022/01/22 01:45:18;;;;;;;0.73;0.63;;;;;;;;;;5027370;28;20219;-62
2022/01/22 01:47:49;;;;;;;1.93;0.90;;;;;;;;;;5027506;28;20798;-62
2022/01/22 01:50:16;;;;;;;0.67;0.60;;;;;;;;;;5026944;28;20237;-62
2022/01/22 01:52:47;;;;;;;1.17;0.83;;;;;;;;;;5027204;28;20217;-61
2022/01/22 01:55:18;;;;;;;3.23;0.63;;;;;;;;;;5027359;28;20214;-61
2022/01/22 01:57:44;;;;;;;3.67;0.97;;;;;;;;;;5027042;28;20301;-61
2022/01/22 02:00:14;;;;;;;1.20;0.80;;;;;;;;;;5027715;28;20209;-61
2022/01/22 02:02:42;;;;;;;2.87;1.00;;;;;;;;;;5027079;28;20203;-63
2022/01/22 02:05:11;;;;;;;0.87;0.87;;;;;;;;;;5026583;28;20631;-61
2022/01/22 02:07:40;;;;;;;3.13;1.40;;;;;;;;;;5026950;28;20223;-61
2022/01/22 02:10:09;;;;;;;1.10;1.00;;;;;;;;;;5026484;28;20218;-61
2022/01/22 02:13:00;;;;;;;2.33;0.77;;;;;;;;;;5026525;28;20212;-61
2022/01/22 02:23:57;;;;;;;0.50;0.50;;;;;;;;;;5026464;28;20230;-62
2022/01/22 02:26:24;;;;;;;0.80;0.70;;;;;;;;;;5026552;28;20278;-61
2022/01/22 02:28:52;;;;;;;1.70;0.80;;;;;;;;;;5026038;28;20911;-61
2022/01/22 02:31:27;;;;;;;2.47;0.90;;;;;;;;;;5026365;28;20247;-62
2022/01/22 02:34:01;;;;;;;4.90;0.90;;;;;;;;;;5025750;28;20243;-61
2022/01/22 02:36:33;;;;;;;0.80;0.80;;;;;;;;;;5026160;28;20210;-62
2022/01/22 02:39:07;;;;;;;6.33;1.10;;;;;;;;;;5025701;28;20297;-62
2022/01/22 02:41:36;;;;;;;0.70;0.70;;;;;;;;;;5025836;28;20215;-62
2022/01/22 02:44:04;;;;;;;0.80;0.80;;;;;;;;;;5024914;28;20208;-62
2022/01/22 02:46:32;;;;;;;3.10;0.80;;;;;;;;;;5025504;28;20212;-61
2022/01/22 02:48:59;;;;;;;0.93;0.53;;;;;;;;;;5016239;28;20534;-61
2022/01/22 02:51:27;;;;;;;0.60;0.60;;;;;;;;;;5025727;28;20254;-61
2022/01/22 02:53:56;;;;;;;1.00;1.00;;;;;;;;;;5013626;28;20717;-61
2022/01/22 02:56:23;;;;;;;0.83;0.83;;;;;;;;;;5024873;28;20269;-61
2022/01/22 02:58:50;;;;;;;1.10;0.90;;;;;;;;;;5025247;28;20306;-62
2022/01/22 03:01:18;;;;;;;1.33;1.10;;;;;;;;;;5025881;28;20645;-62
2022/01/22 03:03:45;;;;;;;1.10;0.87;;;;;;;;;;5026652;28;20831;-61
2022/01/22 03:06:12;;;;;;;1.37;0.80;;;;;;;;;;5025628;28;20206;-61
2022/01/22 03:08:41;;;;;;;1.27;1.10;;;;;;;;;;5025750;28;20219;-61
2022/01/22 03:11:18;;;;;;;1.27;1.10;;;;;;;;;;5026193;28;20204;-61
2022/01/22 03:14:25;;;;;;;2.60;1.13;;;;;;;;;;5026110;28;20221;-62
2022/01/22 03:16:49;;;;;;;1.50;0.93;;;;;;;;;;5017456;28;20234;-61
2022/01/22 03:19:30;;;;;;;2.63;1.07;;;;;;;;;;5025775;28;20670;-61
2022/01/22 03:22:11;;;;;;;0.77;0.77;;;;;;;;;;5025352;28;20233;-61
2022/01/22 03:27:34;;;;;;;1.10;1.10;;;;;;;;;;5000277;28;20219;-61
2022/01/22 03:30:01;;;;;;;1.00;1.00;;;;;;;;;;5024916;28;20208;-61
2022/01/22 03:32:34;;;;;;;0.70;0.70;;;;;;;;;;5025655;28;20219;-61
2022/01/22 03:35:09;;;;;;;0.83;0.83;;;;;;;;;;5025061;28;20236;-61
2022/01/22 03:37:37;;;;;;;0.70;0.70;;;;;;;;;;5025273;28;20743;-62
2022/01/22 03:40:05;;;;;;;1.77;1.03;;;;;;;;;;5025158;28;20290;-62
2022/01/22 03:42:34;;;;;;;2.70;0.80;;;;;;;;;;5025460;28;20219;-61
2022/01/22 03:45:01;;;;;;;0.90;0.90;;;;;;;;;;5024906;28;20219;-61
2022/01/22 03:47:28;;;;;;;1.30;1.20;;;;;;;;;;5025322;28;20212;-61
2022/01/22 03:49:55;;;;;;;1.63;0.80;;;;;;;;;;5025146;28;20303;-61
2022/01/22 03:52:22;;;;;;;1.30;1.20;;;;;;;;;;5026871;28;20678;-63
2022/01/22 03:54:49;;;;;;;0.90;0.90;;;;;;;;;;5029286;28;20203;-61
2022/01/22 03:57:17;;;;;;;1.13;0.90;;;;;;;;;;5029535;28;20235;-61
2022/01/22 03:59:46;;;;;;;1.67;1.40;;;;;;;;;;5029112;28;20297;-61
2022/01/22 04:05:02;;;;;;;1.33;0.97;;;;;;;;;;5022335;28;20210;-62
2022/01/22 04:10:25;;;;;;;1.90;0.90;;;;;;;;;;5028505;28;20211;-61
2022/01/22 04:12:58;;;;;;;3.10;1.07;;;;;;;;;;5028587;28;20207;-62
2022/01/22 04:15:29;;;;;;;1.30;1.20;;;;;;;;;;5028825;28;20216;-61
2022/01/22 04:26:16;;;;;;;1.63;0.80;;;;;;;;;;5001686;28;20207;-62
2022/01/22 04:28:43;;;;;;;1.70;1.17;;;;;;;;;;5025700;28;20203;-62
2022/01/22 04:31:12;;;;;;;0.90;0.90;;;;;;;;;;5027808;28;20238;-62
2022/01/22 04:33:39;;;;;;;1.13;1.00;;;;;;;;;;5027695;28;20286;-62
2022/01/22 04:36:08;;;;;;;0.90;0.90;;;;;;;;;;5027803;28;20211;-61
2022/01/22 04:38:35;;;;;;;0.90;0.90;;;;;;;;;;5027704;28;21024;-62
2022/01/22 04:41:04;;;;;;;4.27;0.80;;;;;;;;;;5028108;28;20235;-61
2022/01/22 04:43:33;;;;;;;1.20;1.10;;;;;;;;;;5027950;28;20200;-62
2022/01/22 04:46:11;;;;;;;0.70;0.70;;;;;;;;;;5028536;28;20210;-62
2022/01/22 04:48:49;;;;;;;0.60;0.60;;;;;;;;;;5026301;28;20215;-63
2022/01/22 04:56:46;;;;;;;1.83;1.00;;;;;;;;;;5027757;28;20217;-60
2022/01/22 04:59:14;;;;;;;1.03;0.93;;;;;;;;;;5032112;28;20789;-61
2022/01/22 05:01:41;;;;;;;0.60;0.60;;;;;;;;;;5032179;28;20840;-61
2022/01/22 05:04:09;;;;;;;0.87;0.87;;;;;;;;;;5031905;28;20222;-60
2022/01/22 05:06:36;;;;;;;0.63;0.63;;;;;;;;;;5032401;28;20211;-61
2022/01/22 05:09:04;;;;;;;1.30;0.67;;;;;;;;;;5032371;28;20201;-62
2022/01/22 05:11:31;;;;;;;0.80;0.80;;;;;;;;;;5032301;28;20235;-61
2022/01/22 05:13:58;;;;;;;0.63;0.63;;;;;;;;;;5031910;28;20204;-60
2022/01/22 05:16:25;;;;;;;0.63;0.63;;;;;;;;;;5032342;28;20210;-61
2022/01/22 05:18:56;;;;;;;0.90;0.90;;;;;;;;;;5031489;28;20228;-61
2022/01/22 05:21:27;;;;;;;0.90;0.90;;;;;;;;;;5032296;28;20219;-60
2022/01/22 05:23:57;;;;;;;0.87;0.87;;;;;;;;;;5028864;28;20705;-61
2022/01/22 05:26:45;;;;;;;1.73;0.80;;;;;;;;;;5032388;28;20243;-61
2022/01/22 05:29:23;;;;;;;0.70;0.70;;;;;;;;;;5031587;28;20641;-61
2022/01/22 05:37:23;;;;;;;2.33;1.20;;;;;;;;;;5031670;28;20263;-61
2022/01/22 05:39:50;;;;;;;0.83;0.77;;;;;;;;;;5031190;28;20255;-61
2022/01/22 05:42:18;;;;;;;2.20;1.03;;;;;;;;;;5032005;28;20203;-61
2022/01/22 05:44:45;;;;;;;0.70;0.70;;;;;;;;;;5031316;28;20267;-62
2022/01/22 05:47:19;;;;;;;0.80;0.80;;;;;;;;;;5031826;28;20216;-62
2022/01/22 05:49:46;;;;;;;1.07;1.03;;;;;;;;;;5031447;28;21986;-62
2022/01/22 05:52:19;;;;;;;0.80;0.80;;;;;;;;;;5031380;28;20211;-61
2022/01/22 05:55:06;;;;;;;1.93;1.03;;;;;;;;;;5031995;28;20208;-61
2022/01/22 06:00:18;;;;;;;1.20;0.83;;;;;;;;;;5021128;28;20215;-62
2022/01/22 06:02:46;;;;;;;1.00;1.00;;;;;;;;;;5021196;28;20673;-62
2022/01/22 06:05:13;;;;;;;0.90;0.83;;;;;;;;;;5030561;28;20934;-62
2022/01/22 06:07:40;;;;;;;1.03;1.03;;;;;;;;;;5030153;28;20261;-63
2022/01/22 06:10:17;;;;;;;0.63;0.63;;;;;;;;;;5029670;28;20212;-61
2022/01/22 06:12:57;;;;;;;1.07;1.07;;;;;;;;;;5030271;28;20294;-61
2022/01/22 06:15:24;;;;;;;0.73;0.73;;;;;;;;;;5030027;28;20222;-61
2022/01/22 06:17:51;;;;;;;0.83;0.83;;;;;;;;;;5029991;28;20234;-61
2022/01/22 06:20:18;;;;;;;1.30;1.20;;;;;;;;;;5030455;28;20579;-61
2022/01/22 06:22:45;;;;;;;1.93;1.83;;;;;;;;;;5030287;28;20212;-61
2022/01/22 06:25:13;;;;;;;2.03;1.60;;;;;;;;;;5029866;28;20208;-61
2022/01/22 06:27:40;;;;;;;1.57;1.47;;;;;;;;;;5029972;28;20260;-61
2022/01/22 06:30:08;;;;;;;5.20;1.43;;;;;;;;;;5030138;28;20205;-62
2022/01/22 06:32:35;;;;;;;2.70;1.57;;;;;;;;;;5030448;28;20212;-61
2022/01/22 06:35:02;;;;;;;2.67;2.00;;;;;;;;;;5029576;28;20298;-61
2022/01/22 06:37:29;;;;;;;1.57;1.47;;;;;;;;;;5028530;28;20205;-62
2022/01/22 06:41:44;;;;;;;1.37;1.33;;;;;;;;;;5031134;28;20205;-62
2022/01/22 06:42:51;;;;;;;1.00;1.00;;;;;;;;;;5030903;28;20219;-61
2022/01/22 06:45:18;;;;;;;1.30;1.20;;;;;;;;;;5030282;28;20211;-62
2022/01/22 06:47:45;;;;;;;1.43;1.30;;;;;;;;;;5030042;28;20200;-60
2022/01/22 06:50:12;;;;;;;1.43;1.33;;;;;;;;;;5030734;28;20282;-60
2022/01/22 06:52:40;;;;;;;1.60;1.50;;;;;;;;;;5030229;28;20208;-61
2022/01/22 06:55:07;;;;;;;1.50;1.40;;;;;;;;;;5029901;28;20206;-61
2022/01/22 06:57:35;;;;;;;1.33;1.17;;;;;;;;;;5029917;28;20216;-61
2022/01/22 07:00:04;;;;;;;1.90;1.40;;;;;;;;;;5030248;28;20250;-61
2022/01/22 07:02:31;;;;;;;1.50;1.50;;;;;;;;;;5029786;28;20570;-61
2022/01/22 07:04:58;;;;;;;1.63;1.57;;;;;;;;;;5030696;28;20222;-61
2022/01/22 07:07:25;;;;;;;1.90;1.77;;;;;;;;;;5030002;28;20647;-61
2022/01/22 07:09:52;;;;;;;1.57;1.57;;;;;;;;;;5030320;28;20203;-62
2022/01/22 07:12:19;;;;;;;1.90;1.80;;;;;;;;;;5029993;28;20221;-61
2022/01/22 07:14:49;;;;;;;2.10;1.90;;;;;;;;;;5028783;28;20276;-61
2022/01/22 07:17:18;;;;;;;1.10;1.10;;;;;;;;;;5029954;28;20244;-61
2022/01/22 07:19:45;;;;;;;2.70;1.53;;;;;;;;;;5030126;28;20220;-61
2022/01/22 07:22:33;;;;;;;2.40;1.77;;;;;;;;;;5030162;28;20659;-61
2022/01/22 07:25:00;;;;;;;1.40;1.40;;;;;;;;;;5029465;28;20212;-62
2022/01/22 07:27:27;;;;;;;1.30;1.30;;;;;;;;;;5030155;28;20882;-62
2022/01/22 07:29:54;;;;;;;1.93;1.83;;;;;;;;;;5029935;28;20265;-61
2022/01/22 07:32:30;;;;;;;4.87;2.17;;;;;;;;;;5029963;28;20269;-62
2022/01/22 07:34:58;;;;;;;1.80;1.70;;;;;;;;;;5029012;28;20646;-61
2022/01/22 07:37:25;;;;;;;1.70;1.70;;;;;;;;;;5029797;28;20671;-61
2022/01/22 07:39:52;;;;;;;1.20;1.20;;;;;;;;;;5029441;28;20232;-62
2022/01/22 07:42:19;;;;;;;1.83;1.73;;;;;;;;;;5025406;28;20212;-62
2022/01/22 07:44:46;;;;;;;1.60;1.50;;;;;;;;;;5029671;28;20212;-61
2022/01/22 07:47:13;;;;;;;1.90;1.57;;;;;;;;;;5029292;28;20209;-61
2022/01/22 07:49:41;;;;;;;1.37;1.37;;;;;;;;;;5029284;28;20581;-61
2022/01/22 07:52:09;;;;;;;0.93;0.93;;;;;;;;;;5029357;28;20204;-61
2022/01/22 07:54:36;;;;;;;1.37;1.27;;;;;;;;;;5029853;28;20268;-61
2022/01/22 07:57:03;;;;;;;1.80;1.70;;;;;;;;;;5029142;28;20221;-61
2022/01/22 07:59:31;;;;;;;1.87;1.37;;;;;;;;;;5029381;28;20246;-61
2022/01/22 08:01:58;;;;;;;2.70;1.60;;;;;;;;;;5029223;28;20685;-61
2022/01/22 08:04:25;;;;;;;1.53;1.47;;;;;;;;;;5029529;28;20848;-61
2022/01/22 08:06:56;;;;;;;1.60;1.50;;;;;;;;;;5028749;28;20211;-62
2022/01/22 08:09:23;;;;;;;1.53;1.37;;;;;;;;;;5029650;28;20286;-60
2022/01/22 08:11:50;;;;;;;2.67;2.27;;;;;;;;;;5029309;28;20440;-62
2022/01/22 08:14:17;;;;;;;7.10;3.00;;;;;;;;;;5029396;28;20273;-75
2022/01/22 08:16:46;;;;;;;3.63;2.80;;;;;;;;;;5026962;28;20212;-62
2022/01/22 08:19:14;;;;;;;2.57;2.47;;;;;;;;;;5029129;28;20489;-61
2022/01/22 08:21:41;;;;;;;1.87;1.77;;;;;;;;;;5029064;28;20270;-61
2022/01/22 08:24:11;;;;;;;1.80;1.80;;;;;;;;;;5028827;28;20258;-61
2022/01/22 08:26:43;;;;;;;1.60;1.50;;;;;;;;;;5028986;28;20207;-61
2022/01/22 08:29:10;;;;;;;1.70;1.53;;;;;;;;;;5029017;28;20232;-63
2022/01/22 08:31:47;;;;;;;1.30;1.30;;;;;;;;;;5028779;28;20208;-63
2022/01/22 08:36:59;;;;;;;1.27;1.27;;;;;;;;;;5032228;28;20678;-61
2022/01/22 08:39:28;;;;;;;1.43;1.33;;;;;;;;;;5033028;28;20235;-65
2022/01/22 08:41:55;;;;;;;10.70;5.03;;;;;;;;;;5032789;28;20211;-63
2022/01/22 08:44:22;;;;;;;15.33;7.77;;;;;;;;;;5032712;28;20632;-62
2022/01/22 08:46:49;;;;;;;4.27;3.17;;;;;;;;;;5032010;28;20204;-62
2022/01/22 08:49:16;;;;;;;4.33;2.53;;;;;;;;;;5031831;28;20671;-62
2022/01/22 08:51:43;;;;;;;3.13;2.83;;;;;;;;;;5030046;28;20273;-62
2022/01/22 08:54:11;;;;;;;1.97;1.87;;;;;;;;;;5031503;28;20215;-62
2022/01/22 08:56:42;;;;;;;2.30;2.10;;;;;;;;;;5031814;28;20307;-62
2022/01/22 08:59:11;;;;;;;2.20;2.00;;;;;;;;;;5031875;28;20297;-62
2022/01/22 09:01:39;;;;;;;2.00;1.60;;;;;;;;;;5032409;28;20295;-62
2022/01/22 09:04:06;;;;;;;2.10;2.00;;;;;;;;;;5032141;28;20204;-62
2022/01/22 09:06:33;;;;;;;1.40;1.30;;;;;;;;;;5032538;28;20346;-62
2022/01/22 09:09:08;;;;;;;1.87;1.67;;;;;;;;;;5032062;28;20632;-62
2022/01/22 09:11:35;;;;;;;2.00;1.90;;;;;;;;;;5030250;28;20218;-62
2022/01/22 09:14:04;;;;;;;1.70;1.47;;;;;;;;;;5032282;28;20239;-62
2022/01/22 09:16:31;;;;;;;2.60;1.37;;;;;;;;;;5031805;28;20667;-62
2022/01/22 09:19:05;;;;;;;2.40;1.93;;;;;;;;;;5031996;28;20286;-61
2022/01/22 09:21:32;;;;;;;4.93;2.17;;;;;;;;;;5031577;28;20255;-62
2022/01/22 09:23:59;;;;;;;1.30;1.20;;;;;;;;;;5032169;28;20671;-62
2022/01/22 09:26:26;;;;;;;1.60;1.50;;;;;;;;;;5031323;28;20220;-62
2022/01/22 09:28:55;;;;;;;2.00;1.60;;;;;;;;;;5031731;28;20204;-61
2022/01/22 09:31:24;;;;;;;1.70;1.60;;;;;;;;;;5031104;28;20204;-62
2022/01/22 09:33:51;;;;;;;1.23;1.23;;;;;;;;;;5031621;28;20317;-61
2022/01/22 09:36:18;;;;;;;2.87;2.67;;;;;;;;;;5031623;28;20266;-62
2022/01/22 09:38:45;;;;;;;2.30;2.03;;;;;;;;;;5031989;28;20216;-61
2022/01/22 09:41:12;;;;;;;2.73;2.53;;;;;;;;;;5031578;28;20232;-60
2022/01/22 09:43:39;;;;;;;1.70;1.60;;;;;;;;;;5030776;28;20235;-61
2022/01/22 09:46:06;;;;;;;1.33;1.17;;;;;;;;;;5030514;28;20296;-62
2022/01/22 09:48:35;;;;;;;1.67;1.63;;;;;;;;;;5031636;28;20263;-63
2022/01/22 09:51:02;;;;;;;1.37;1.37;;;;;;;;;;5031502;28;20235;-61
2022/01/22 09:53:29;;;;;;;1.90;1.80;;;;;;;;;;5031201;28;20216;-61
2022/01/22 09:55:56;;;;;;;2.33;1.10;;;;;;;;;;5031721;28;20208;-60
2022/01/22 09:58:23;;;;;;;1.30;1.30;;;;;;;;;;5029282;28;20200;-61
2022/01/22 10:00:51;;;;;;;1.97;1.80;;;;;;;;;;5030977;28;20298;-61
2022/01/22 10:03:19;;;;;;;1.53;1.53;;;;;;;;;;5030241;28;20212;-61
2022/01/22 10:05:48;;;;;;;2.00;1.90;;;;;;;;;;5030226;28;20215;-63
2022/01/22 10:08:24;;;;;;;1.40;1.40;;;;;;;;;;5024381;28;20217;-63
2022/01/22 10:10:51;;;;;;;3.13;2.00;;;;;;;;;;5027830;28;20690;-60
2022/01/22 10:13:37;;;;;;;2.00;1.90;;;;;;;;;;5029055;28;20262;-61
2022/01/22 10:16:10;;;;;;;3.37;2.43;;;;;;;;;;5029906;28;20299;-61
2022/01/22 10:18:37;;;;;;;2.03;1.70;;;;;;;;;;5029519;28;20612;-60
2022/01/22 10:21:08;;;;;;;3.80;1.90;;;;;;;;;;5029184;28;20216;-61
2022/01/22 10:23:39;;;;;;;1.90;1.80;;;;;;;;;;5029481;28;20200;-61
2022/01/22 10:26:08;;;;;;;2.03;1.83;;;;;;;;;;5030106;28;20384;-61
2022/01/22 10:28:45;;;;;;;1.57;1.47;;;;;;;;;;5029603;28;20201;-61
2022/01/22 10:31:20;;;;;;;2.13;1.67;;;;;;;;;;5029792;28;20204;-62
2022/01/22 10:34:02;;;;;;;1.73;1.63;;;;;;;;;;5021061;28;20242;-62
2022/01/22 10:36:31;;;;;;;1.40;1.30;;;;;;;;;;5029987;28;20212;-61
2022/01/22 10:38:58;;;;;;;2.77;1.50;;;;;;;;;;5023400;28;20709;-62
2022/01/22 10:41:33;;;;;;;1.73;1.57;;;;;;;;;;5030153;28;20687;-61
2022/01/22 10:44:01;;;;;;;1.67;1.57;;;;;;;;;;5029002;28;20211;-61
2022/01/22 10:46:41;;;;;;;1.40;1.40;;;;;;;;;;5029437;28;20295;-61
2022/01/22 10:49:10;;;;;;;1.60;1.50;;;;;;;;;;5028935;28;20210;-61
2022/01/22 10:51:46;;;;;;;1.37;1.30;;;;;;;;;;5028760;28;20311;-61
2022/01/22 10:54:14;;;;;;;1.57;1.50;;;;;;;;;;5029896;28;20239;-61
2022/01/22 10:56:42;;;;;;;1.80;1.57;;;;;;;;;;5029190;28;20302;-60
2022/01/22 10:59:10;;;;;;;1.70;1.60;;;;;;;;;;5028960;28;20232;-61
2022/01/22 11:01:46;;;;;;;7.13;3.60;;;;;;;;;;5028619;28;20292;-61
2022/01/22 11:04:14;;;;;;;4.17;3.10;;;;;;;;;;5026112;28;20204;-61
2022/01/22 11:06:47;;;;;;;7.93;4.33;;;;;;;;;;5029516;28;20287;-61
2022/01/22 11:09:16;;;;;;;5.63;3.40;;;;;;;;;;5026005;28;20259;-69
2022/01/22 11:11:43;;;;;;;2.90;2.67;;;;;;;;;;5025554;28;20236;-60
2022/01/22 11:14:11;;;;;;;2.13;2.00;;;;;;;;;;5024104;28;20614;-60
2022/01/22 11:16:39;;;;;;;3.23;2.90;;;;;;;;;;5024801;28;20521;-61
2022/01/22 11:19:07;;;;;;;3.20;2.77;;;;;;;;;;5024839;28;20215;-62
2022/01/22 11:21:34;;;;;;;6.87;3.60;;;;;;;;;;5024450;28;20659;-62
2022/01/22 11:24:01;;;;;;;4.73;4.03;;;;;;;;;;5025210;28;20618;-61
2022/01/22 11:26:30;;;;;;;2.97;2.67;;;;;;;;;;5025062;28;20238;-59
2022/01/22 11:28:57;;;;;;;1.93;1.83;;;;;;;;;;5011146;28;20270;-60
2022/01/22 11:31:25;;;;;;;3.57;2.87;;;;;;;;;;5024619;28;20875;-60
2022/01/22 11:33:54;;;;;;;3.07;2.17;;;;;;;;;;5025309;28;20561;-61
2022/01/22 11:36:23;;;;;;;3.67;3.33;;;;;;;;;;5024597;28;20208;-62
2022/01/22 11:38:53;;;;;;;2.17;2.03;;;;;;;;;;5024498;28;20261;-61
2022/01/22 11:41:21;;;;;;;2.07;1.97;;;;;;;;;;5023008;28;20234;-61
2022/01/22 11:43:59;;;;;;;4.03;1.93;;;;;;;;;;5020972;28;20205;-62
2022/01/22 11:46:29;;;;;;;2.60;1.80;;;;;;;;;;5024742;28;20219;-62
2022/01/22 11:49:15;;;;;;;2.20;2.10;;;;;;;;;;5024711;28;20634;-60
2022/01/22 11:51:42;;;;;;;1.20;1.20;;;;;;;;;;5024521;28;20236;-61
2022/01/22 11:54:09;;;;;;;2.57;2.47;;;;;;;;;;5024489;28;20738;-61
2022/01/22 11:56:47;;;;;;;4.00;1.93;;;;;;;;;;5024842;28;20216;-61
2022/01/22 11:59:25;;;;;;;4.10;2.97;;;;;;;;;;5024092;28;20216;-61
2022/01/22 12:02:03;;;;;;;1.80;1.70;;;;;;;;;;5020732;28;20212;-63
2022/01/22 12:04:46;;;;;;;1.60;1.50;;;;;;;;;;5025087;28;20242;-62
2022/01/22 12:07:18;;;;;;;1.20;1.20;;;;;;;;;;5024458;28;20216;-62
2022/01/22 12:09:53;;;;;;;1.60;1.50;;;;;;;;;;5025368;28;20227;-60
2022/01/22 12:15:16;;;;;;;1.00;1.00;;;;;;;;;;5011812;28;20212;-61
2022/01/22 12:18:00;;;;;;;1.03;1.03;;;;;;;;;;5025064;28;20208;-62
2022/01/22 12:21:30;;;;;;;1.53;1.47;;;;;;;;;;5025261;28;20354;-61
2022/01/22 12:23:49;;;;;;;1.00;0.90;;;;;;;;;;5024201;28;20208;-61
2022/01/22 12:26:16;;;;;;;0.90;0.90;;;;;;;;;;5024591;28;20215;-63
2022/01/22 12:28:44;;;;;;;1.17;1.17;;;;;;;;;;5024755;28;20915;-60
2022/01/22 12:31:15;;;;;;;1.60;1.37;;;;;;;;;;5023328;28;20731;-62
2022/01/22 12:33:46;;;;;;;1.47;1.40;;;;;;;;;;5024368;28;20243;-60
2022/01/22 12:36:18;;;;;;;0.97;0.97;;;;;;;;;;5024886;28;20212;-60
2022/01/22 12:38:48;;;;;;;0.93;0.93;;;;;;;;;;5011079;28;20266;-61
2022/01/22 12:41:29;;;;;;;1.60;1.53;;;;;;;;;;5024649;28;20232;-61
2022/01/22 12:44:04;;;;;;;0.90;0.90;;;;;;;;;;5025189;28;20247;-61
2022/01/22 12:46:33;;;;;;;2.57;2.40;;;;;;;;;;5024886;28;20212;-63
2022/01/22 12:49:00;;;;;;;1.93;1.83;;;;;;;;;;5018217;28;20223;-62
2022/01/22 12:51:27;;;;;;;1.30;1.20;;;;;;;;;;5024350;28;20722;-62
2022/01/22 12:53:54;;;;;;;1.40;1.40;;;;;;;;;;5022836;28;20631;-62
2022/01/22 12:56:48;;;;;;;1.03;1.03;;;;;;;;;;5024758;28;20222;-61
2022/01/22 12:59:15;;;;;;;1.77;1.67;;;;;;;;;;5024725;28;20263;-61
2022/01/22 13:01:46;;;;;;;2.70;2.33;;;;;;;;;;5025369;28;20220;-61
2022/01/22 13:04:13;;;;;;;7.90;5.23;;;;;;;;;;5024339;28;20212;-61
2022/01/22 13:06:41;;;;;;;2.83;2.40;;;;;;;;;;5025704;28;20249;-61
2022/01/22 13:09:09;;;;;;;4.23;2.40;;;;;;;;;;5025016;28;20770;-62
2022/01/22 13:11:44;;;;;;;1.80;1.70;;;;;;;;;;5024976;28;21002;-62
2022/01/22 13:14:12;;;;;;;2.57;1.50;;;;;;;;;;5024613;28;20863;-62
2022/01/22 13:16:48;;;;;;;1.83;1.57;;;;;;;;;;5023097;28;20220;-60
2022/01/22 13:19:15;;;;;;;4.87;3.23;;;;;;;;;;5027373;28;20216;-61
2022/01/22 13:21:49;;;;;;;2.37;2.17;;;;;;;;;;5027636;28;20247;-60
2022/01/22 13:24:16;;;;;;;2.20;1.97;;;;;;;;;;5028482;28;20318;-61
2022/01/22 13:26:47;;;;;;;2.13;1.63;;;;;;;;;;5028407;28;20219;-61
2022/01/22 13:29:17;;;;;;;1.67;1.67;;;;;;;;;;5027354;28;20290;-61
2022/01/22 13:31:57;;;;;;;2.00;1.90;;;;;;;;;;5027795;28;20219;-60
2022/01/22 13:34:33;;;;;;;1.90;1.77;;;;;;;;;;5022436;28;20248;-61
2022/01/22 13:37:37;;;;;;;1.50;1.40;;;;;;;;;;5027734;28;20215;-61
2022/01/22 13:40:14;;;;;;;1.80;1.70;;;;;;;;;;5027427;28;20238;-62
2022/01/22 13:47:41;;;;;;;4.57;2.27;;;;;;;;;;5027571;28;20212;-60
2022/01/22 13:48:25;;;;;;;1.60;1.57;;;;;;;;;;5027958;28;20200;-62
2022/01/22 13:50:52;;;;;;;1.43;1.33;;;;;;;;;;5026162;28;20323;-65
2022/01/22 13:53:19;;;;;;;1.47;1.47;;;;;;;;;;5023410;28;20204;-63
2022/01/22 13:56:05;;;;;;;1.80;1.67;;;;;;;;;;5027645;28;20214;-60
2022/01/22 13:58:32;;;;;;;6.90;3.73;;;;;;;;;;5007486;28;20243;-61
2022/01/22 14:01:05;;;;;;;2.77;2.00;;;;;;;;;;5007066;28;20655;-62
2022/01/22 14:03:39;;;;;;;2.87;1.50;;;;;;;;;;5022072;28;20211;-62
2022/01/22 14:06:07;;;;;;;5.07;1.60;;;;;;;;;;5026991;28;20319;-61
2022/01/22 14:08:34;;;;;;;2.43;1.17;;;;;;;;;;5027027;28;20231;-62
2022/01/22 14:11:06;;;;;;;1.23;1.17;;;;;;;;;;5026320;28;20216;-62
2022/01/22 14:13:34;;;;;;;1.90;1.20;;;;;;;;;;5024612;28;20745;-62
2022/01/22 14:16:16;;;;;;;1.57;1.50;;;;;;;;;;5026113;28;20224;-63
2022/01/22 14:18:45;;;;;;;1.30;1.30;;;;;;;;;;5026294;28;20212;-62
2022/01/22 14:21:15;;;;;;;1.30;1.30;;;;;;;;;;5025900;28;20717;-60
2022/01/22 14:23:42;;;;;;;2.17;1.97;;;;;;;;;;5024695;28;20457;-62
2022/01/22 14:26:10;;;;;;;1.50;1.40;;;;;;;;;;5026631;28;20509;-61
2022/01/22 14:28:40;;;;;;;1.50;1.50;;;;;;;;;;5026291;28;20316;-63
2022/01/22 14:31:25;;;;;;;2.13;1.90;;;;;;;;;;5024833;28;20205;-60
2022/01/22 14:33:54;;;;;;;2.37;2.00;;;;;;;;;;5017990;28;20243;-64
2022/01/22 14:36:22;;;;;;;3.30;3.00;;;;;;;;;;5025450;28;21019;-64
2022/01/22 14:38:53;;;;;;;3.80;2.13;;;;;;;;;;5024230;28;20268;-64
2022/01/22 14:44:27;;;;;;;2.47;2.10;;;;;;;;;;5024298;28;20231;-63
2022/01/22 14:46:58;;;;;;;2.83;2.13;;;;;;;;;;5025568;28;20671;-64
2022/01/22 14:49:28;;;;;;;4.93;3.20;;;;;;;;;;5025432;28;20217;-63
2022/01/22 14:51:55;;;;;;;6.40;3.77;;;;;;;;;;5020412;28;20220;-63
2022/01/22 14:54:23;;;;;;;6.73;3.70;;;;;;;;;;5025517;28;20223;-66
2022/01/22 14:56:50;;;;;;;5.10;3.10;;;;;;;;;;5023584;28;20266;-64
2022/01/22 14:59:17;;;;;;;2.63;1.93;;;;;;;;;;5022907;28;20208;-63
2022/01/22 15:01:44;;;;;;;2.43;1.43;;;;;;;;;;5025404;28;20236;-63
2022/01/22 15:04:11;;;;;;;1.70;1.50;;;;;;;;;;5025765;28;20213;-63
2022/01/22 15:06:39;;;;;;;1.80;1.70;;;;;;;;;;5028279;28;20703;-63
2022/01/22 15:09:07;;;;;;;1.63;1.53;;;;;;;;;;5022376;28;20282;-64
2022/01/22 15:11:34;;;;;;;2.33;2.00;;;;;;;;;;5024789;28;20209;-64
2022/01/22 15:14:07;;;;;;;1.20;1.20;;;;;;;;;;5025227;28;20307;-66
2022/01/22 15:16:39;;;;;;;1.87;1.77;;;;;;;;;;5025344;28;20204;-65
2022/01/22 15:19:13;;;;;;;1.40;1.40;;;;;;;;;;5025333;28;20219;-64
2022/01/22 15:21:42;;;;;;;0.77;0.77;;;;;;;;;;5029771;28;20715;-64
2022/01/22 15:24:09;;;;;;;1.47;1.37;;;;;;;;;;5027576;28;20211;-64
2022/01/22 15:26:36;;;;;;;2.10;1.30;;;;;;;;;;5022991;28;20212;-64
2022/01/22 15:29:04;;;;;;;1.70;1.00;;;;;;;;;;5024087;28;20204;-64
2022/01/22 15:31:34;;;;;;;0.90;0.90;;;;;;;;;;5024626;28;20227;-64
2022/01/22 15:34:12;;;;;;;1.47;1.33;;;;;;;;;;5023580;28;20252;-64
2022/01/22 15:36:40;;;;;;;1.60;1.50;;;;;;;;;;5030383;28;20214;-64
2022/01/22 15:39:09;;;;;;;1.80;1.70;;;;;;;;;;5026230;28;20216;-64
2022/01/22 15:41:37;;;;;;;1.87;1.77;;;;;;;;;;5017086;28;20229;-63
2022/01/22 15:44:08;;;;;;;2.70;2.03;;;;;;;;;;5015427;28;20220;-63
2022/01/22 15:46:37;;;;;;;1.87;1.77;;;;;;;;;;5013849;28;20220;-63
2022/01/22 15:49:04;;;;;;;2.90;2.33;;;;;;;;;;5021801;28;20219;-63
2022/01/22 15:51:31;;;;;;;3.50;2.80;;;;;;;;;;5024551;28;20499;-63
2022/01/22 15:53:58;;;;;;;5.17;3.03;;;;;;;;;;5021952;28;20801;-64
2022/01/22 15:56:27;;;;;;;13.97;5.00;;;;;;;;;;5023821;28;20251;-64
2022/01/22 15:58:54;;;;;;;10.97;7.03;;;;;;;;;;5024307;28;20208;-72
2022/01/22 16:01:21;;;;;;;13.97;6.63;;;;;;;;;;5024480;28;20235;-67
2022/01/22 16:03:55;;;;;;;6.63;4.37;;;;;;;;;;5024750;28;21041;-64
2022/01/22 16:06:23;;;;;;;4.30;3.70;;;;;;;;;;5025133;28;20254;-64